Latest Weather Observations for Williamtown

IDN60901

Issued at 6:15 am EST Sunday 31 August 2014 (issued every 10 minutes, with the page automatically refreshed every 10 minutes)

About weather observations | Map of Sydney area stations | Latest observations for Sydney area | Other Formats
Station Details ID: 061078 Name: WILLIAMTOWN RAAF Lat: -32.79 Lon: 151.84 Height: 9.0 m
Data from the previous 72 hours. | See also: Recent months at Williamtown
Date/Time
EST
Tmp

°C
App
Tmp
°C
Dew
Point
°C
Rel
Hum
%
Delta-T

°C
Wind Press
QNH
hPa
Press
MSL
hPa
Rain
since
9 am
mm
Dir
 
Spd
km/h
Gust
km/h
Spd
kts
Gust
kts
31/06:00am 11.2 8.5 10.2 94 0.5 WNW 15 17 8 9 1019.9 1020.0 0.4
31/05:30am 12.1 10.3 10.7 91 0.7 WNW 11 15 6 8 1019.7 - 0.4
31/05:00am 12.5 10.3 10.8 89 0.9 W 13 17 7 9 1019.6 - 0.4
31/04:30am 13.2 10.7 10.9 86 1.2 W 15 20 8 11 1019.6 - 0.4
31/04:16am 13.2 10.7 11.1 87 1.1 W 15 17 8 9 1019.6 - 0.4
31/04:00am 13.1 11.0 11.0 87 1.1 W 13 17 7 9 1019.6 - 0.4
31/03:30am 13.4 10.9 11.1 86 1.2 W 15 20 8 11 1019.7 - 0.4
31/03:20am 13.6 11.1 11.1 85 1.3 W 15 19 8 10 1019.7 - 0.4
31/03:11am 13.5 11.0 11.2 86 1.2 W 15 20 8 11 1019.7 - 0.4
31/03:00am 13.6 11.1 11.1 85 1.3 WSW 15 19 8 10 1019.7 1019.8 0.4
31/02:30am 13.7 11.3 11.4 86 1.2 W 15 19 8 10 1019.8 - 0.4
31/02:12am 13.7 10.9 11.4 86 1.2 WSW 17 24 9 13 1019.8 - 0.4
31/02:09am 13.7 10.9 11.4 86 1.2 WSW 17 24 9 13 1019.9 - 0.4
31/02:00am 13.7 10.9 11.4 86 1.2 WSW 17 20 9 11 1019.9 - 0.4
31/01:58am 13.7 10.9 11.4 86 1.2 WSW 17 20 9 11 1019.9 - 0.4
31/01:44am 13.6 10.8 11.3 86 1.2 WSW 17 22 9 12 1020.0 - 0.4
31/01:30am 13.5 11.0 11.2 86 1.2 WSW 15 17 8 9 1020.1 - 0.4
31/01:10am 13.8 11.4 11.3 85 1.3 WSW 15 20 8 11 1020.3 - 0.4
31/01:00am 13.9 11.5 11.3 84 1.4 SW 15 20 8 11 1020.3 - 0.4
31/12:30am 14.1 11.3 11.5 84 1.4 WSW 17 22 9 12 1020.4 - 0.4
31/12:00am 14.1 11.8 11.7 85 1.3 WSW 15 19 8 10 1020.6 1020.7 0.4
 
Date/Time
EST
Tmp

°C
App
Tmp
°C
Dew
Point
°C
Rel
Hum
%
Delta-T

°C
Wind Press
QNH
hPa
Press
MSL
hPa
Rain
since
9 am
mm
Dir
 
Spd
km/h
Gust
km/h
Spd
kts
Gust
kts
30/11:30pm 14.1 10.9 11.9 86 1.2 SW 20 30 11 16 1020.8 - 0.4
30/11:17pm 14.4 11.4 11.8 84 1.4 SW 19 26 10 14 1020.8 - 0.4
30/11:05pm 14.3 11.2 11.7 84 1.4 SW 19 26 10 14 1020.8 - 0.4
30/11:00pm 14.2 11.5 11.8 85 1.3 SW 17 22 9 12 1020.8 - 0.4
30/10:30pm 14.0 11.0 11.8 86 1.2 SW 19 28 10 15 1020.8 - 0.4
30/10:00pm 14.5 10.5 11.9 84 1.4 SW 24 33 13 18 1020.9 - 0.4
30/09:30pm 14.4 10.5 12.2 87 1.2 SW 24 32 13 17 1021.0 - 0.4
30/09:00pm 14.8 11.7 12.2 84 1.4 SW 20 33 11 18 1020.9 1021.0 0.4
30/08:30pm 15.1 11.9 12.0 82 1.7 WSW 20 28 11 15 1021.0 - 0.4
30/08:00pm 15.1 12.5 12.0 82 1.7 WSW 17 24 9 13 1021.1 - 0.4
30/07:30pm 15.2 12.2 11.9 81 1.8 SW 19 28 10 15 1020.9 - 0.4
30/07:00pm 15.3 12.3 12.0 81 1.8 SW 19 26 10 14 1020.8 - 0.4
30/06:30pm 15.4 11.8 11.9 79 1.9 SW 22 30 12 16 1020.6 - 0.4
30/06:00pm 15.5 11.1 11.6 77 2.1 SW 26 32 14 17 1020.5 1020.6 0.4
30/05:30pm 15.7 11.3 11.8 77 2.1 SSW 26 33 14 18 1020.3 - 0.4
30/05:00pm 16.1 11.8 12.1 77 2.2 SSW 26 35 14 19 1020.3 - 0.4
30/04:30pm 16.4 12.6 12.4 77 2.2 SSW 24 35 13 19 1020.4 - 0.4
30/04:00pm 16.4 11.3 12.0 75 2.4 SSW 30 48 16 26 1020.3 - 0.4
30/03:30pm 16.7 11.6 11.9 73 2.6 SSW 30 43 16 23 1020.3 - 0.4
30/03:18pm 17.0 12.4 12.3 74 2.6 SSW 28 46 15 25 1020.4 - 0.4
30/03:00pm 16.9 11.9 12.2 74 2.6 SSW 30 44 16 24 1020.3 1020.4 0.4
30/02:47pm 16.8 12.4 12.8 77 2.2 SSW 28 48 15 26 1020.3 - 0.4
30/02:30pm 16.7 13.1 12.9 78 2.1 SW 24 33 13 18 1020.4 - 0.4
30/02:00pm 15.5 10.8 13.2 86 1.3 SW 30 41 16 22 1020.6 - 0.4
30/01:30pm 15.7 11.0 13.2 85 1.4 SW 30 43 16 23 1020.8 - 0.2
30/01:00pm 16.2 11.2 12.2 77 2.2 SSW 30 39 16 21 1020.8 - 0.0
30/12:30pm 16.9 12.1 11.7 71 2.8 SW 28 39 15 21 1020.9 - 0.0
30/12:00pm 17.0 12.1 11.2 68 3.1 SW 28 35 15 19 1021.2 1021.3 0.0
30/11:30am 16.8 11.2 11.4 70 2.9 SW 32 44 17 24 1021.7 - 0.0
30/11:00am 16.2 10.5 11.1 72 2.7 SW 32 37 17 20 1022.0 - 0.0
30/10:30am 15.6 9.9 11.1 74 2.4 SW 32 41 17 22 1022.0 - 0.0
30/10:00am 15.3 10.0 11.2 76 2.2 SW 30 41 16 22 1022.0 - 0.0
30/09:30am 14.3 8.7 11.5 83 1.5 SW 32 46 17 25 1021.9 - 0.0
30/09:00am 14.2 9.3 11.4 83 1.5 SW 28 35 15 19 1022.1 1022.2 1.4
30/08:30am 13.0 7.9 10.7 86 1.2 WSW 28 39 15 21 1022.1 - 1.4
30/08:05am 13.2 8.6 10.9 86 1.2 SW 26 35 14 19 1022.0 - 1.4
30/08:00am 13.2 8.9 10.9 86 1.2 WSW 24 33 13 18 1022.1 - 1.4
30/07:55am 13.1 8.4 10.8 86 1.2 WSW 26 33 14 18 1022.0 - 1.4
30/07:30am 12.8 7.8 10.9 88 1.0 SW 28 39 15 21 1022.0 - 1.4
30/07:16am 12.8 7.1 11.1 89 0.9 SW 32 44 17 24 1021.8 - 1.4
30/07:00am 12.7 8.1 11.0 89 0.9 SW 26 37 14 20 1021.7 - 1.0
30/06:38am 12.2 7.2 10.9 92 0.7 SW 28 35 15 19 1021.6 - 1.0
30/06:30am 12.2 7.5 10.5 89 0.9 SW 26 35 14 19 1021.5 - 1.0
30/06:00am 12.0 7.1 9.8 86 1.1 WSW 26 35 14 19 1021.4 1021.5 1.0
30/05:30am 12.1 5.9 9.5 84 1.3 SW 32 46 17 25 1021.1 - 1.0
30/05:00am 12.1 7.1 9.7 85 1.2 SW 26 37 14 20 1020.8 - 0.8
30/04:30am 11.7 8.2 10.1 90 0.8 WSW 19 28 10 15 1020.8 - 0.8
30/04:00am 12.0 6.7 9.8 86 1.1 SW 28 37 15 20 1020.9 - 0.6
30/03:30am 12.7 7.3 9.5 81 1.6 SW 28 39 15 21 1020.9 - 0.6
30/03:00am 13.4 7.3 8.1 70 2.6 SW 30 41 16 22 1020.9 1021.0 0.6
30/02:37am 13.5 7.7 8.0 69 2.7 SW 28 48 15 26 1021.1 - 0.6
30/02:30am 13.5 8.2 8.3 71 2.6 SW 26 35 14 19 1021.2 - 0.6
30/02:00am 13.5 7.3 8.0 69 2.7 SW 30 46 16 25 1021.5 - 0.6
30/01:30am 13.4 8.0 8.1 70 2.6 SW 26 35 14 19 1021.6 - 0.6
30/01:00am 13.5 7.3 8.0 69 2.7 SW 30 41 16 22 1022.0 - 0.6
30/12:33am 13.6 6.8 7.7 67 2.9 SW 33 52 18 28 1022.3 - 0.6
30/12:30am 13.5 6.9 7.8 68 2.8 SW 32 41 17 22 1022.3 - 0.6
30/12:01am 13.7 7.6 6.8 63 3.3 SW 28 48 15 26 1022.5 - 0.6
30/12:00am 13.8 8.1 6.7 62 3.4 SW 26 43 14 23 1022.5 1022.6 0.6
 
Date/Time
EST
Tmp

°C
App
Tmp
°C
Dew
Point
°C
Rel
Hum
%
Delta-T

°C
Wind Press
QNH
hPa
Press
MSL
hPa
Rain
since
9 am
mm
Dir
 
Spd
km/h
Gust
km/h
Spd
kts
Gust
kts
29/11:30pm 13.9 8.5 6.4 60 3.6 WSW 24 32 13 17 1022.5 - 0.6
29/11:00pm 13.9 7.8 6.6 61 3.5 WSW 28 35 15 19 1022.6 - 0.6
29/10:30pm 13.8 8.4 6.5 61 3.5 WSW 24 32 13 17 1022.7 - 0.6
29/10:00pm 13.7 9.2 6.8 63 3.3 WSW 20 30 11 16 1022.8 - 0.6
29/09:30pm 13.8 9.4 7.2 64 3.2 WSW 20 30 11 16 1023.0 - 0.6
29/09:00pm 13.9 9.5 7.6 66 3.1 SW 20 37 11 20 1023.2 1023.3 0.6
29/08:31pm 15.0 7.6 5.2 52 4.6 SSW 33 52 18 28 1023.2 - 0.6
29/08:30pm 15.1 7.3 5.1 51 4.7 SSW 35 52 19 28 1023.2 - 0.6
29/08:01pm 15.1 7.8 5.3 52 4.6 SSW 33 52 18 28 1023.3 - 0.6
29/08:00pm 15.0 7.3 5.5 53 4.5 SSW 35 52 19 28 1023.3 - 0.6
29/07:35pm 14.9 6.9 5.6 53 4.4 SSW 37 56 20 30 1023.4 - 0.6
29/07:30pm 14.8 6.4 5.5 53 4.4 SSW 39 56 21 30 1023.3 - 0.6
29/07:07pm 14.8 8.5 7.2 60 3.7 SSW 30 48 16 26 1023.2 - 0.6
29/07:00pm 14.5 9.2 8.5 67 3.0 SSW 26 39 14 21 1023.1 - 0.6
29/06:30pm 14.1 9.4 9.4 73 2.4 SW 24 35 13 19 1023.1 - 0.6
29/06:00pm 14.1 9.6 10.0 76 2.1 SW 24 33 13 18 1023.1 1023.2 0.6
29/05:30pm 14.5 9.6 10.1 75 2.3 SSW 26 44 14 24 1022.9 - 0.6
29/05:00pm 14.7 9.5 10.1 74 2.4 SSW 28 41 15 22 1022.7 - 0.6
29/04:48pm 15.3 9.8 10.5 73 2.5 SSW 30 48 16 26 1022.8 - 0.2
29/04:30pm 15.6 10.2 9.6 67 3.1 SW 28 39 15 21 1022.5 - 0.2
29/04:00pm 15.5 10.9 11.0 74 2.4 SSW 26 41 14 22 1022.5 - 0.2
29/03:37pm 14.5 9.5 10.9 79 1.9 SSW 28 48 15 26 1022.8 - 0.0
29/03:00pm 14.9 8.9 10.9 77 2.1 S 33 48 18 26 1023.0 1023.1 0.0
29/02:30pm 15.9 9.6 9.1 64 3.5 SSW 32 48 17 26 1023.0 - 0.0
29/02:12pm 16.8 11.1 8.3 57 4.3 SSW 28 46 15 25 1023.0 - 0.0
29/02:00pm 17.1 10.8 7.5 53 4.8 SSW 30 41 16 22 1023.0 - 0.0
29/01:43pm 17.5 11.9 8.7 56 4.5 SSW 28 46 15 25 1023.2 - 0.0
29/01:30pm 18.4 12.0 8.5 52 5.1 SSW 32 43 17 23 1023.3 - 0.0
29/01:23pm 17.6 11.4 7.9 53 4.9 SSW 30 48 16 26 1023.4 - 0.0
29/01:00pm 17.6 11.0 8.4 55 4.7 SSW 33 48 18 26 1023.7 - 0.0
29/12:30pm 17.0 10.4 7.9 55 4.6 SSW 32 44 17 24 1024.0 - 0.0
29/12:00pm 18.0 11.4 8.4 53 4.9 SW 33 43 18 23 1024.3 1024.4 0.0
29/11:30am 16.8 11.6 8.8 59 4.1 SSW 26 33 14 18 1024.6 - 0.0
29/11:00am 15.6 10.7 8.5 62 3.6 SSW 24 30 13 16 1025.1 - 0.0
29/10:30am 15.3 9.7 8.6 64 3.4 SW 28 35 15 19 1025.3 - 0.0
29/10:00am 15.7 10.6 9.3 65 3.3 SW 26 35 14 19 1025.3 - 0.0
29/09:30am 14.3 9.6 9.4 72 2.5 SW 24 33 13 18 1025.7 - 0.0
29/09:00am 13.5 8.8 9.1 75 2.2 WSW 24 33 13 18 1026.0 1026.1 4.2
29/08:30am 12.1 8.4 9.5 84 1.3 W 19 28 10 15 1025.9 - 4.0
29/08:00am 11.8 8.1 9.6 86 1.1 WSW 19 26 10 14 1025.9 - 4.0
29/07:30am 11.3 7.9 9.3 87 1.0 WSW 17 24 9 13 1025.6 - 4.0
29/07:00am 10.7 6.9 9.1 90 0.8 W 19 24 10 13 1025.3 - 4.0
29/06:30am 10.3 5.5 8.7 90 0.8 WSW 24 30 13 16 1025.5 - 4.0
29/06:00am 9.3 6.4 8.0 92 0.6 W 13 17 7 9 1025.1 1025.2 3.8
29/05:30am 8.9 5.9 7.8 93 0.5 W 13 17 7 9 1024.7 - 3.8
29/05:00am 8.9 5.9 7.8 93 0.5 WNW 13 15 7 8 1024.6 - 3.8
29/04:30am 9.5 6.1 7.8 89 0.8 W 15 22 8 12 1024.7 - 3.8
29/04:00am 10.3 6.7 8.2 87 1.0 W 17 20 9 11 1024.6 - 3.8
29/03:30am 11.0 7.0 8.1 82 1.4 WSW 19 26 10 14 1024.7 - 3.8
29/03:00am 10.0 6.6 7.7 86 1.1 W 15 19 8 10 1024.8 1024.9 3.8
29/02:30am 10.2 6.4 7.5 83 1.3 W 17 19 9 10 1024.9 - 3.8
29/02:00am 10.4 6.6 7.5 82 1.4 W 17 19 9 10 1025.1 - 3.8
29/01:30am 10.6 7.3 7.9 83 1.3 W 15 20 8 11 1025.5 - 3.8
29/01:00am 10.9 7.6 8.2 83 1.3 W 15 19 8 10 1025.7 - 3.8
29/12:30am 10.5 7.2 8.0 84 1.2 W 15 20 8 11 1025.8 - 3.8
29/12:00am 11.0 7.4 8.3 83 1.3 W 17 22 9 12 1026.0 1026.1 3.8
 
Date/Time
EST
Tmp

°C
App
Tmp
°C
Dew
Point
°C
Rel
Hum
%
Delta-T

°C
Wind Press
QNH
hPa
Press
MSL
hPa
Rain
since
9 am
mm
Dir
 
Spd
km/h
Gust
km/h
Spd
kts
Gust
kts
28/11:30pm 11.0 7.8 8.5 84 1.2 W 15 19 8 10 1025.9 - 3.8
28/11:00pm 11.7 8.4 8.2 79 1.7 W 15 19 8 10 1026.1 - 3.8
28/10:30pm 12.2 8.5 7.9 75 2.1 WSW 17 20 9 11 1026.2 - 3.8
28/10:00pm 15.0 10.6 7.5 61 3.7 S 20 28 11 15 1026.3 - 3.8
28/09:30pm 15.3 10.1 5.3 51 4.7 S 22 30 12 16 1026.4 - 3.8
28/09:00pm 15.4 9.5 6.0 53 4.5 S 26 35 14 19 1026.4 1026.5 3.8
28/08:30pm 15.7 10.0 6.9 56 4.3 S 26 35 14 19 1026.2 - 3.8
28/08:00pm 15.4 9.9 7.5 59 3.9 S 26 35 14 19 1026.1 - 3.8
28/07:30pm 15.5 10.1 8.1 61 3.7 S 26 33 14 18 1026.0 - 3.8
28/07:00pm 15.2 10.4 7.5 60 3.8 S 22 32 12 17 1025.9 - 3.8
28/06:30pm 15.6 9.7 7.3 57 4.1 S 28 41 15 22 1025.7 - 3.8
28/06:00pm 15.8 10.7 7.8 59 4.0 S 24 33 13 18 1025.5 1025.6 3.8
28/05:30pm 15.6 10.8 8.9 64 3.4 S 24 33 13 18 1025.2 - 3.6
28/05:00pm 16.0 11.6 8.9 62 3.6 S 22 33 12 18 1024.8 - 3.6
28/04:30pm 15.0 12.3 11.8 81 1.7 S 17 26 9 14 1024.7 - 3.6
28/04:00pm 14.4 8.1 11.0 80 1.8 SSE 35 59 19 32 1024.7 - 3.6
28/03:48pm 18.2 11.9 9.8 58 4.4 SSE 33 59 18 32 1024.6 - 2.0
28/03:30pm 17.9 11.7 9.5 58 4.4 SSE 32 41 17 22 1024.3 - 2.0
28/03:00pm 18.5 11.8 8.1 50 5.3 SSE 33 46 18 25 1024.2 1024.3 2.0
28/02:30pm 19.0 12.7 8.8 51 5.3 SSE 32 44 17 24 1024.1 - 2.0
28/02:19pm 18.9 13.1 7.9 49 5.6 SSE 28 46 15 25 1024.0 - 2.0
28/02:00pm 18.2 10.5 8.5 53 5.0 SSE 39 52 21 28 1024.1 - 2.0
28/01:30pm 18.3 13.5 10.2 59 4.3 SSE 26 35 14 19 1024.0 - 2.0
28/01:00pm 17.9 13.0 11.2 65 3.6 SE 28 35 15 19 1024.2 - 2.0
28/12:30pm 15.1 10.9 11.1 77 2.1 ESE 24 30 13 16 1024.6 - 2.0
28/12:16pm 17.5 11.7 11.4 67 3.3 SSE 33 57 18 31 1024.5 - 0.2
28/12:14pm 19.0 12.6 9.5 54 5.0 SSE 33 39 18 21 1024.4 - 0.2
28/12:00pm 17.8 11.5 9.8 59 4.2 SSE 33 43 18 23 1024.6 1024.7 0.2
28/11:30am 19.4 13.0 8.6 49 5.6 SSE 32 41 17 22 1024.8 - 0.2
28/11:00am 18.9 12.4 8.2 50 5.5 SSE 32 43 17 23 1024.9 - 0.2
28/10:30am 18.5 13.3 11.5 63 3.8 SE 30 35 16 19 1025.0 - 0.2
28/10:00am 14.7 8.9 10.7 77 2.1 SE 32 50 17 27 1025.2 - 0.0
28/09:55am 15.8 10.4 9.4 65 3.3 SSE 28 50 15 27 1025.3 - 0.0
28/09:30am 15.7 9.8 11.0 73 2.5 SSE 33 46 18 25 1025.2 - 0.0
28/09:26am 16.6 11.0 10.1 65 3.4 SSE 30 46 16 25 1025.1 - 0.0
28/09:00am 17.7 13.3 9.0 56 4.5 SSE 22 28 12 15 1025.0 1025.1 12.4
28/08:30am 16.7 12.9 9.8 63 3.6 SSE 20 30 11 16 1024.8 - 12.4
28/08:00am 13.7 12.0 12.4 92 0.7 W 13 17 7 9 1024.7 - 12.4
28/07:30am 13.8 12.7 12.1 89 0.9 SE 9 11 5 6 1024.3 - 12.4
28/07:00am 12.9 11.9 12.3 96 0.3 SSW 9 19 5 10 1024.4 - 12.2
28/06:30am 12.7 11.6 12.1 96 0.3 WNW 9 13 5 7 1024.0 - 11.8

Latest Capital City Observations: Canberra | Sydney | Melbourne | Brisbane | Adelaide | Perth | Hobart | Darwin

Other Formats:

Comma delimited format used in spreadsheet applications
http://www.bom.gov.au/fwo/IDN60901/IDN60901.94776.axf

JavaScript Object Notation format (JSON) in row-major order
http://www.bom.gov.au/fwo/IDN60901/IDN60901.94776.json